17:10
Airports
History
Links
Donate
Help keep this website running!
PayPal
Bitcoin
This page is community maintained. The information is intended for PC simulator navigation or reference.
Always use approved charts for navigation.
51OI
Clays Rv
Clays Rv (51OI)
Canal Fulton, Ohio, United States (44666)
4
Lat/Lng:40° 51' 18.2" N / 81° 35' 56.44" W
40.855056 / -81.599012
Elevation:1035'ft / 315mMSL
ID / ICAO:51OI
Runways:1
Longest:10-28
Grass 789m / 2,587ft
Nearby Weather16:51 GMT 2017-11-21
Nearby weather at KCAK, Akron-canton Rgnl located 9.1 nautical miles from 51OI
Altimeter: 29.86
Visibility: 10.0 statute miles
Wind: 22 knots (from 200°)
Temp: 10°c / 50°f
Humidity: 39.9%

METAR: KCAK 211651Z 20022G33KT 10SM FEW160 BKN250 10/M03 A2986 RMK AO2 PK WND 22033/1647 SLP116 T01001028

(Powered by phpweather)
Nearby VORs <50NM
Nearby NDBs
Runway 10 / 28
Dimensions:788.6 x 18.3m 2587' x 60'ft
Surface:Grass
Edge Lights:Medium intensity
Runway 10 [A]Runway 28 [B]
Heading:093°TH 273°TH
Lat:
Lng:
40° 51' 19.1"N
81° 36' 13.37"W
40° 51' 17.31"N
81° 35' 39.51"W
User Notes and Comments
40° 51' 18.2" N / 81° 35' 56.44" W
Distance To
Airport ID:
Nearby Airports
(R) Canal Fulton 4.6 NM
7OH2 NE 47°
4 Spring Valley Farm 7.0 NM
OH20 NW 309°
(R) Lockeridge 8.5 NM
OI58 E 96°
(R) Cross 9.1 NM
91OI SE 126°
(C) Akron-canton Rgnl 9.1 NM
KCAK ( WX ) ENE 62°
(R) Stoltzfus Airfield 11.4 NM
OH22 SW 235°
(R) Hilty Field 12.0 NM
OI68 WNW 299°
VFR Chart
Flight Planning at SkyVector.com